sensor_id;sensor_type;location;lat;lon;timestamp;P1;durP1;ratioP1;P2;durP2;ratioP2
70301;SDS011;57706;56.326;43.882;2023-07-20T00:01:26;13.38;;;6.70;;
70301;SDS011;57706;56.326;43.882;2023-07-20T00:03:53;15.30;;;5.43;;
70301;SDS011;57706;56.326;43.882;2023-07-20T00:06:22;13.43;;;5.63;;
70301;SDS011;57706;56.326;43.882;2023-07-20T00:08:56;9.38;;;4.22;;
70301;SDS011;57706;56.326;43.882;2023-07-20T00:11:25;7.88;;;4.88;;
70301;SDS011;57706;56.326;43.882;2023-07-20T00:13:52;8.40;;;3.83;;
70301;SDS011;57706;56.326;43.882;2023-07-20T00:16:17;7.18;;;4.60;;
70301;SDS011;57706;56.326;43.882;2023-07-20T00:18:43;9.48;;;3.42;;
70301;SDS011;57706;56.326;43.882;2023-07-20T00:21:09;8.52;;;4.70;;
70301;SDS011;57706;56.326;43.882;2023-07-20T00:23:35;10.57;;;3.38;;
70301;SDS011;57706;56.326;43.882;2023-07-20T00:26:01;5.10;;;3.90;;
70301;SDS011;57706;56.326;43.882;2023-07-20T00:28:27;6.78;;;3.35;;
70301;SDS011;57706;56.326;43.882;2023-07-20T00:30:53;8.55;;;3.90;;
70301;SDS011;57706;56.326;43.882;2023-07-20T00:33:19;10.93;;;4.03;;
70301;SDS011;57706;56.326;43.882;2023-07-20T00:35:45;9.13;;;3.75;;
70301;SDS011;57706;56.326;43.882;2023-07-20T00:38:11;6.25;;;4.13;;
70301;SDS011;57706;56.326;43.882;2023-07-20T00:40:38;5.10;;;3.50;;
70301;SDS011;57706;56.326;43.882;2023-07-20T00:43:05;6.93;;;4.47;;
70301;SDS011;57706;56.326;43.882;2023-07-20T00:45:31;6.70;;;4.63;;
70301;SDS011;57706;56.326;43.882;2023-07-20T00:47:59;5.60;;;3.70;;
70301;SDS011;57706;56.326;43.882;2023-07-20T00:50:27;7.75;;;5.00;;
70301;SDS011;57706;56.326;43.882;2023-07-20T00:52:57;8.60;;;3.75;;
70301;SDS011;57706;56.326;43.882;2023-07-20T00:55:24;4.45;;;3.67;;
70301;SDS011;57706;56.326;43.882;2023-07-20T00:57:52;7.13;;;4.05;;
70301;SDS011;57706;56.326;43.882;2023-07-20T01:00:19;7.57;;;3.63;;
70301;SDS011;57706;56.326;43.882;2023-07-20T01:02:45;10.68;;;4.20;;
70301;SDS011;57706;56.326;43.882;2023-07-20T01:05:12;9.90;;;4.63;;
70301;SDS011;57706;56.326;43.882;2023-07-20T01:12:46;9.45;;;4.22;;
70301;SDS011;57706;56.326;43.882;2023-07-20T01:15:13;8.68;;;4.25;;
70301;SDS011;57706;56.326;43.882;2023-07-20T01:17:39;7.45;;;3.92;;
70301;SDS011;57706;56.326;43.882;2023-07-20T01:20:06;6.05;;;3.70;;
70301;SDS011;57706;56.326;43.882;2023-07-20T01:31:44;11.95;;;4.53;;
70301;SDS011;57706;56.326;43.882;2023-07-20T01:34:11;6.43;;;4.18;;
70301;SDS011;57706;56.326;43.882;2023-07-20T01:36:41;7.30;;;4.53;;
70301;SDS011;57706;56.326;43.882;2023-07-20T01:39:08;8.45;;;4.32;;
70301;SDS011;57706;56.326;43.882;2023-07-20T01:41:34;13.93;;;4.43;;
70301;SDS011;57706;56.326;43.882;2023-07-20T01:44:00;5.88;;;3.92;;
70301;SDS011;57706;56.326;43.882;2023-07-20T01:46:27;7.07;;;4.50;;
70301;SDS011;57706;56.326;43.882;2023-07-20T01:48:54;6.22;;;4.30;;
70301;SDS011;57706;56.326;43.882;2023-07-20T01:51:20;8.50;;;3.60;;
70301;SDS011;57706;56.326;43.882;2023-07-20T01:53:48;8.57;;;3.53;;
70301;SDS011;57706;56.326;43.882;2023-07-20T01:56:14;5.53;;;3.55;;
70301;SDS011;57706;56.326;43.882;2023-07-20T01:58:40;5.85;;;3.58;;
70301;SDS011;57706;56.326;43.882;2023-07-20T02:01:06;4.30;;;3.17;;
70301;SDS011;57706;56.326;43.882;2023-07-20T02:03:32;5.20;;;3.13;;
70301;SDS011;57706;56.326;43.882;2023-07-20T02:05:57;6.65;;;3.25;;
70301;SDS011;57706;56.326;43.882;2023-07-20T02:08:25;6.40;;;2.88;;
70301;SDS011;57706;56.326;43.882;2023-07-20T02:10:51;6.03;;;3.42;;
70301;SDS011;57706;56.326;43.882;2023-07-20T02:13:18;6.07;;;3.15;;
70301;SDS011;57706;56.326;43.882;2023-07-20T02:15:44;10.10;;;3.22;;
70301;SDS011;57706;56.326;43.882;2023-07-20T02:18:13;7.25;;;3.42;;
70301;SDS011;57706;56.326;43.882;2023-07-20T02:20:40;5.93;;;3.03;;
70301;SDS011;57706;56.326;43.882;2023-07-20T02:23:06;5.90;;;2.70;;
70301;SDS011;57706;56.326;43.882;2023-07-20T02:25:32;4.65;;;3.10;;
70301;SDS011;57706;56.326;43.882;2023-07-20T02:27:58;7.70;;;3.40;;
70301;SDS011;57706;56.326;43.882;2023-07-20T02:30:25;4.63;;;3.50;;
70301;SDS011;57706;56.326;43.882;2023-07-20T02:32:54;7.47;;;3.58;;
70301;SDS011;57706;56.326;43.882;2023-07-20T02:35:21;7.88;;;3.28;;
70301;SDS011;57706;56.326;43.882;2023-07-20T02:37:47;5.63;;;3.15;;
70301;SDS011;57706;56.326;43.882;2023-07-20T02:40:13;5.13;;;3.80;;
70301;SDS011;57706;56.326;43.882;2023-07-20T02:42:39;9.32;;;3.60;;
70301;SDS011;57706;56.326;43.882;2023-07-20T02:45:05;6.03;;;3.22;;
70301;SDS011;57706;56.326;43.882;2023-07-20T02:47:34;6.25;;;3.83;;
70301;SDS011;57706;56.326;43.882;2023-07-20T02:50:01;5.65;;;3.20;;
70301;SDS011;57706;56.326;43.882;2023-07-20T02:52:31;6.40;;;3.42;;
70301;SDS011;57706;56.326;43.882;2023-07-20T02:54:57;3.92;;;3.00;;
70301;SDS011;57706;56.326;43.882;2023-07-20T02:57:23;8.18;;;3.40;;
70301;SDS011;57706;56.326;43.882;2023-07-20T02:59:49;7.38;;;3.80;;
70301;SDS011;57706;56.326;43.882;2023-07-20T03:02:15;6.75;;;2.90;;
70301;SDS011;57706;56.326;43.882;2023-07-20T03:04:42;12.35;;;2.88;;
70301;SDS011;57706;56.326;43.882;2023-07-20T03:07:08;6.88;;;3.10;;
70301;SDS011;57706;56.326;43.882;2023-07-20T03:09:34;4.78;;;3.15;;
70301;SDS011;57706;56.326;43.882;2023-07-20T03:12:00;6.43;;;3.20;;
70301;SDS011;57706;56.326;43.882;2023-07-20T03:14:27;7.40;;;4.13;;
70301;SDS011;57706;56.326;43.882;2023-07-20T03:16:54;7.43;;;2.85;;
70301;SDS011;57706;56.326;43.882;2023-07-20T03:19:20;6.15;;;3.13;;
70301;SDS011;57706;56.326;43.882;2023-07-20T03:21:47;7.25;;;2.47;;
70301;SDS011;57706;56.326;43.882;2023-07-20T03:24:13;6.80;;;2.97;;
70301;SDS011;57706;56.326;43.882;2023-07-20T03:26:40;7.95;;;2.80;;
70301;SDS011;57706;56.326;43.882;2023-07-20T03:29:06;6.38;;;2.88;;
70301;SDS011;57706;56.326;43.882;2023-07-20T03:31:34;6.32;;;2.85;;
70301;SDS011;57706;56.326;43.882;2023-07-20T03:34:00;7.40;;;2.40;;
70301;SDS011;57706;56.326;43.882;2023-07-20T03:36:26;4.18;;;2.30;;
70301;SDS011;57706;56.326;43.882;2023-07-20T03:38:52;5.22;;;2.60;;
70301;SDS011;57706;56.326;43.882;2023-07-20T03:41:17;4.68;;;2.20;;
70301;SDS011;57706;56.326;43.882;2023-07-20T03:43:45;5.43;;;2.60;;
70301;SDS011;57706;56.326;43.882;2023-07-20T03:46:11;8.70;;;2.42;;
70301;SDS011;57706;56.326;43.882;2023-07-20T03:48:38;5.82;;;2.42;;
70301;SDS011;57706;56.326;43.882;2023-07-20T03:51:04;6.38;;;2.45;;
70301;SDS011;57706;56.326;43.882;2023-07-20T03:53:29;4.50;;;2.40;;
70301;SDS011;57706;56.326;43.882;2023-07-20T03:55:55;9.55;;;2.58;;
70301;SDS011;57706;56.326;43.882;2023-07-20T03:58:21;4.28;;;2.72;;
70301;SDS011;57706;56.326;43.882;2023-07-20T04:00:48;6.15;;;2.88;;
70301;SDS011;57706;56.326;43.882;2023-07-20T04:03:16;5.38;;;2.85;;
70301;SDS011;57706;56.326;43.882;2023-07-20T04:05:45;6.47;;;3.28;;
70301;SDS011;57706;56.326;43.882;2023-07-20T04:08:12;4.38;;;2.55;;
70301;SDS011;57706;56.326;43.882;2023-07-20T04:10:38;3.67;;;2.65;;
70301;SDS011;57706;56.326;43.882;2023-07-20T04:13:04;9.40;;;2.50;;
70301;SDS011;57706;56.326;43.882;2023-07-20T04:15:31;4.50;;;2.80;;
70301;SDS011;57706;56.326;43.882;2023-07-20T04:17:57;5.95;;;2.60;;
70301;SDS011;57706;56.326;43.882;2023-07-20T04:20:24;10.50;;;3.45;;
70301;SDS011;57706;56.326;43.882;2023-07-20T04:22:50;4.63;;;2.80;;
70301;SDS011;57706;56.326;43.882;2023-07-20T04:25:18;5.72;;;2.70;;
70301;SDS011;57706;56.326;43.882;2023-07-20T04:27:45;6.32;;;2.90;;
70301;SDS011;57706;56.326;43.882;2023-07-20T04:30:12;9.45;;;3.47;;
70301;SDS011;57706;56.326;43.882;2023-07-20T04:32:38;10.02;;;2.90;;
70301;SDS011;57706;56.326;43.882;2023-07-20T04:35:44;7.22;;;2.60;;
70301;SDS011;57706;56.326;43.882;2023-07-20T04:38:10;5.47;;;2.70;;
70301;SDS011;57706;56.326;43.882;2023-07-20T04:40:36;4.80;;;2.40;;
70301;SDS011;57706;56.326;43.882;2023-07-20T04:43:02;7.22;;;3.08;;
70301;SDS011;57706;56.326;43.882;2023-07-20T04:45:28;6.43;;;2.58;;
70301;SDS011;57706;56.326;43.882;2023-07-20T04:47:55;5.05;;;3.05;;
70301;SDS011;57706;56.326;43.882;2023-07-20T04:50:21;6.13;;;2.80;;
70301;SDS011;57706;56.326;43.882;2023-07-20T04:52:47;5.93;;;2.88;;
70301;SDS011;57706;56.326;43.882;2023-07-20T04:55:17;8.07;;;2.70;;
70301;SDS011;57706;56.326;43.882;2023-07-20T04:57:44;8.50;;;2.80;;
70301;SDS011;57706;56.326;43.882;2023-07-20T05:00:10;6.75;;;2.97;;
70301;SDS011;57706;56.326;43.882;2023-07-20T05:02:39;5.40;;;2.53;;
70301;SDS011;57706;56.326;43.882;2023-07-20T05:05:05;5.97;;;2.75;;
70301;SDS011;57706;56.326;43.882;2023-07-20T05:07:34;4.97;;;2.70;;
70301;SDS011;57706;56.326;43.882;2023-07-20T05:10:00;4.90;;;2.38;;
70301;SDS011;57706;56.326;43.882;2023-07-20T05:12:30;9.90;;;2.42;;
70301;SDS011;57706;56.326;43.882;2023-07-20T05:14:55;5.97;;;2.30;;
70301;SDS011;57706;56.326;43.882;2023-07-20T05:17:21;8.07;;;3.22;;
70301;SDS011;57706;56.326;43.882;2023-07-20T05:19:47;8.25;;;3.40;;
70301;SDS011;57706;56.326;43.882;2023-07-20T05:22:13;4.88;;;3.28;;
70301;SDS011;57706;56.326;43.882;2023-07-20T05:24:39;4.60;;;2.80;;
70301;SDS011;57706;56.326;43.882;2023-07-20T05:27:05;3.38;;;2.30;;
70301;SDS011;57706;56.326;43.882;2023-07-20T05:29:31;5.85;;;2.90;;
70301;SDS011;57706;56.326;43.882;2023-07-20T05:31:58;5.97;;;2.65;;
70301;SDS011;57706;56.326;43.882;2023-07-20T05:34:24;4.95;;;2.67;;
70301;SDS011;57706;56.326;43.882;2023-07-20T05:36:50;6.63;;;2.13;;
70301;SDS011;57706;56.326;43.882;2023-07-20T05:39:18;5.10;;;2.30;;
70301;SDS011;57706;56.326;43.882;2023-07-20T05:41:44;5.85;;;2.67;;
70301;SDS011;57706;56.326;43.882;2023-07-20T05:44:10;4.20;;;2.70;;
70301;SDS011;57706;56.326;43.882;2023-07-20T05:46:36;5.63;;;2.50;;
70301;SDS011;57706;56.326;43.882;2023-07-20T05:49:01;6.25;;;2.80;;
70301;SDS011;57706;56.326;43.882;2023-07-20T05:51:27;3.88;;;2.70;;
70301;SDS011;57706;56.326;43.882;2023-07-20T05:53:53;9.85;;;2.92;;
70301;SDS011;57706;56.326;43.882;2023-07-20T05:56:19;5.00;;;2.72;;
70301;SDS011;57706;56.326;43.882;2023-07-20T05:58:45;4.22;;;3.03;;
70301;SDS011;57706;56.326;43.882;2023-07-20T06:01:10;8.30;;;3.15;;
70301;SDS011;57706;56.326;43.882;2023-07-20T06:03:36;8.52;;;2.90;;
70301;SDS011;57706;56.326;43.882;2023-07-20T06:06:03;6.88;;;3.17;;
70301;SDS011;57706;56.326;43.882;2023-07-20T06:08:32;9.80;;;3.20;;
70301;SDS011;57706;56.326;43.882;2023-07-20T06:10:58;5.97;;;3.45;;
70301;SDS011;57706;56.326;43.882;2023-07-20T06:13:23;10.05;;;3.40;;
70301;SDS011;57706;56.326;43.882;2023-07-20T06:15:50;8.13;;;3.00;;
70301;SDS011;57706;56.326;43.882;2023-07-20T06:18:16;6.40;;;3.33;;
70301;SDS011;57706;56.326;43.882;2023-07-20T06:20:42;9.30;;;3.13;;
70301;SDS011;57706;56.326;43.882;2023-07-20T06:23:08;9.35;;;5.03;;
70301;SDS011;57706;56.326;43.882;2023-07-20T06:25:34;8.52;;;5.07;;
70301;SDS011;57706;56.326;43.882;2023-07-20T06:28:00;8.90;;;3.75;;
70301;SDS011;57706;56.326;43.882;2023-07-20T06:30:26;10.48;;;5.97;;
70301;SDS011;57706;56.326;43.882;2023-07-20T06:32:52;4.82;;;3.15;;
70301;SDS011;57706;56.326;43.882;2023-07-20T06:35:18;5.20;;;2.75;;
70301;SDS011;57706;56.326;43.882;2023-07-20T06:37:44;7.57;;;2.22;;
70301;SDS011;57706;56.326;43.882;2023-07-20T06:40:10;7.72;;;2.38;;
70301;SDS011;57706;56.326;43.882;2023-07-20T06:42:36;6.82;;;2.53;;
70301;SDS011;57706;56.326;43.882;2023-07-20T06:45:02;3.13;;;2.72;;
70301;SDS011;57706;56.326;43.882;2023-07-20T06:47:30;2.22;;;1.80;;
70301;SDS011;57706;56.326;43.882;2023-07-20T06:49:56;4.28;;;1.90;;
70301;SDS011;57706;56.326;43.882;2023-07-20T06:52:22;4.13;;;2.10;;
70301;SDS011;57706;56.326;43.882;2023-07-20T06:54:48;6.68;;;2.60;;
70301;SDS011;57706;56.326;43.882;2023-07-20T06:57:13;5.13;;;2.65;;
70301;SDS011;57706;56.326;43.882;2023-07-20T06:59:39;8.30;;;2.53;;
70301;SDS011;57706;56.326;43.882;2023-07-20T07:02:05;4.30;;;2.00;;
70301;SDS011;57706;56.326;43.882;2023-07-20T07:04:31;5.40;;;2.00;;
70301;SDS011;57706;56.326;43.882;2023-07-20T07:06:57;9.50;;;2.50;;
70301;SDS011;57706;56.326;43.882;2023-07-20T07:09:23;5.53;;;2.70;;
70301;SDS011;57706;56.326;43.882;2023-07-20T07:11:49;6.25;;;2.25;;
70301;SDS011;57706;56.326;43.882;2023-07-20T07:14:15;4.93;;;2.60;;
70301;SDS011;57706;56.326;43.882;2023-07-20T07:16:41;3.95;;;2.67;;
70301;SDS011;57706;56.326;43.882;2023-07-20T07:19:07;3.38;;;2.17;;
70301;SDS011;57706;56.326;43.882;2023-07-20T07:21:34;5.93;;;2.45;;
70301;SDS011;57706;56.326;43.882;2023-07-20T07:24:00;5.78;;;2.05;;
70301;SDS011;57706;56.326;43.882;2023-07-20T07:26:26;5.80;;;3.00;;
70301;SDS011;57706;56.326;43.882;2023-07-20T07:28:52;10.10;;;2.70;;
70301;SDS011;57706;56.326;43.882;2023-07-20T07:31:18;8.85;;;2.53;;
70301;SDS011;57706;56.326;43.882;2023-07-20T07:33:44;4.55;;;2.28;;
70301;SDS011;57706;56.326;43.882;2023-07-20T07:36:10;13.07;;;2.50;;
70301;SDS011;57706;56.326;43.882;2023-07-20T07:38:36;5.82;;;2.65;;
70301;SDS011;57706;56.326;43.882;2023-07-20T07:41:03;6.80;;;2.10;;
70301;SDS011;57706;56.326;43.882;2023-07-20T07:43:29;2.90;;;1.90;;
70301;SDS011;57706;56.326;43.882;2023-07-20T07:45:55;7.70;;;2.00;;
70301;SDS011;57706;56.326;43.882;2023-07-20T07:48:23;5.45;;;2.42;;
70301;SDS011;57706;56.326;43.882;2023-07-20T07:50:51;5.72;;;2.90;;
70301;SDS011;57706;56.326;43.882;2023-07-20T07:53:17;4.10;;;3.05;;
70301;SDS011;57706;56.326;43.882;2023-07-20T07:55:44;3.67;;;2.10;;
70301;SDS011;57706;56.326;43.882;2023-07-20T07:58:10;5.20;;;1.70;;
70301;SDS011;57706;56.326;43.882;2023-07-20T08:00:36;8.05;;;1.95;;
70301;SDS011;57706;56.326;43.882;2023-07-20T08:03:02;3.47;;;2.35;;
70301;SDS011;57706;56.326;43.882;2023-07-20T08:05:28;7.50;;;2.30;;
70301;SDS011;57706;56.326;43.882;2023-07-20T08:07:54;4.68;;;1.70;;
70301;SDS011;57706;56.326;43.882;2023-07-20T08:10:19;5.53;;;1.83;;
70301;SDS011;57706;56.326;43.882;2023-07-20T08:12:45;6.10;;;2.10;;
70301;SDS011;57706;56.326;43.882;2023-07-20T08:15:11;4.10;;;2.45;;
70301;SDS011;57706;56.326;43.882;2023-07-20T08:17:40;6.32;;;2.10;;
70301;SDS011;57706;56.326;43.882;2023-07-20T08:20:09;4.10;;;2.00;;
70301;SDS011;57706;56.326;43.882;2023-07-20T08:22:37;5.30;;;1.85;;
70301;SDS011;57706;56.326;43.882;2023-07-20T08:25:08;4.70;;;1.67;;
70301;SDS011;57706;56.326;43.882;2023-07-20T08:27:34;6.15;;;1.40;;
70301;SDS011;57706;56.326;43.882;2023-07-20T08:30:02;4.10;;;1.67;;
70301;SDS011;57706;56.326;43.882;2023-07-20T08:32:30;4.93;;;1.80;;
70301;SDS011;57706;56.326;43.882;2023-07-20T08:34:56;6.07;;;2.17;;
70301;SDS011;57706;56.326;43.882;2023-07-20T08:37:22;3.28;;;1.77;;
70301;SDS011;57706;56.326;43.882;2023-07-20T08:39:48;4.25;;;1.77;;
70301;SDS011;57706;56.326;43.882;2023-07-20T08:42:14;3.42;;;2.00;;
70301;SDS011;57706;56.326;43.882;2023-07-20T08:44:41;5.57;;;1.50;;
70301;SDS011;57706;56.326;43.882;2023-07-20T08:47:09;4.97;;;1.63;;
70301;SDS011;57706;56.326;43.882;2023-07-20T08:49:37;4.00;;;1.70;;
70301;SDS011;57706;56.326;43.882;2023-07-20T08:52:05;6.10;;;1.88;;
70301;SDS011;57706;56.326;43.882;2023-07-20T08:54:32;9.02;;;1.90;;
70301;SDS011;57706;56.326;43.882;2023-07-20T08:57:03;5.47;;;1.83;;
70301;SDS011;57706;56.326;43.882;2023-07-20T08:59:29;3.72;;;1.85;;
70301;SDS011;57706;56.326;43.882;2023-07-20T09:01:56;5.40;;;2.03;;
70301;SDS011;57706;56.326;43.882;2023-07-20T09:04:23;4.65;;;2.10;;
70301;SDS011;57706;56.326;43.882;2023-07-20T09:06:49;5.50;;;1.98;;
70301;SDS011;57706;56.326;43.882;2023-07-20T09:09:15;3.95;;;2.00;;
70301;SDS011;57706;56.326;43.882;2023-07-20T09:11:42;5.90;;;2.03;;
70301;SDS011;57706;56.326;43.882;2023-07-20T09:14:09;7.43;;;1.98;;
70301;SDS011;57706;56.326;43.882;2023-07-20T09:16:54;2.55;;;1.52;;
70301;SDS011;57706;56.326;43.882;2023-07-20T09:19:21;3.83;;;1.73;;
70301;SDS011;57706;56.326;43.882;2023-07-20T09:21:48;3.80;;;1.90;;
70301;SDS011;57706;56.326;43.882;2023-07-20T09:24:15;5.22;;;1.30;;
70301;SDS011;57706;56.326;43.882;2023-07-20T09:26:43;7.10;;;1.75;;
70301;SDS011;57706;56.326;43.882;2023-07-20T09:29:10;5.28;;;1.73;;
70301;SDS011;57706;56.326;43.882;2023-07-20T09:31:37;3.45;;;1.60;;
70301;SDS011;57706;56.326;43.882;2023-07-20T09:34:05;4.28;;;1.90;;
70301;SDS011;57706;56.326;43.882;2023-07-20T09:36:35;5.03;;;1.70;;
70301;SDS011;57706;56.326;43.882;2023-07-20T09:39:04;5.95;;;1.83;;
70301;SDS011;57706;56.326;43.882;2023-07-20T09:41:39;6.95;;;1.70;;
70301;SDS011;57706;56.326;43.882;2023-07-20T09:44:06;3.78;;;1.70;;
70301;SDS011;57706;56.326;43.882;2023-07-20T09:46:42;4.82;;;1.33;;
70301;SDS011;57706;56.326;43.882;2023-07-20T09:49:12;1.90;;;1.33;;
70301;SDS011;57706;56.326;43.882;2023-07-20T09:51:38;3.83;;;1.60;;
70301;SDS011;57706;56.326;43.882;2023-07-20T09:54:04;2.97;;;1.70;;
70301;SDS011;57706;56.326;43.882;2023-07-20T09:56:31;3.33;;;1.70;;
70301;SDS011;57706;56.326;43.882;2023-07-20T09:58:58;5.25;;;2.20;;
70301;SDS011;57706;56.326;43.882;2023-07-20T10:01:27;4.25;;;2.00;;
70301;SDS011;57706;56.326;43.882;2023-07-20T10:03:57;3.33;;;2.10;;
70301;SDS011;57706;56.326;43.882;2023-07-20T10:06:24;5.05;;;1.67;;
70301;SDS011;57706;56.326;43.882;2023-07-20T10:08:52;6.28;;;2.17;;
70301;SDS011;57706;56.326;43.882;2023-07-20T10:11:21;2.50;;;1.95;;
70301;SDS011;57706;56.326;43.882;2023-07-20T10:13:51;6.00;;;2.22;;
70301;SDS011;57706;56.326;43.882;2023-07-20T10:16:26;6.10;;;1.95;;
70301;SDS011;57706;56.326;43.882;2023-07-20T10:19:05;3.05;;;1.80;;
70301;SDS011;57706;56.326;43.882;2023-07-20T10:21:38;7.05;;;2.30;;
70301;SDS011;57706;56.326;43.882;2023-07-20T10:24:07;5.13;;;1.70;;
70301;SDS011;57706;56.326;43.882;2023-07-20T10:26:35;3.17;;;1.95;;
70301;SDS011;57706;56.326;43.882;2023-07-20T10:29:01;9.98;;;2.13;;
70301;SDS011;57706;56.326;43.882;2023-07-20T10:31:28;4.65;;;2.10;;
70301;SDS011;57706;56.326;43.882;2023-07-20T10:33:56;11.50;;;2.33;;
70301;SDS011;57706;56.326;43.882;2023-07-20T10:36:26;5.65;;;1.80;;
70301;SDS011;57706;56.326;43.882;2023-07-20T10:38:53;7.15;;;2.50;;
70301;SDS011;57706;56.326;43.882;2023-07-20T10:43:49;4.57;;;2.25;;
70301;SDS011;57706;56.326;43.882;2023-07-20T10:49:11;9.10;;;2.30;;
70301;SDS011;57706;56.326;43.882;2023-07-20T10:51:44;8.57;;;1.75;;
70301;SDS011;57706;56.326;43.882;2023-07-20T10:54:34;5.20;;;2.90;;
70301;SDS011;57706;56.326;43.882;2023-07-20T10:57:21;6.95;;;2.30;;
70301;SDS011;57706;56.326;43.882;2023-07-20T10:59:50;3.70;;;1.70;;
70301;SDS011;57706;56.326;43.882;2023-07-20T11:02:41;4.18;;;1.58;;
70301;SDS011;57706;56.326;43.882;2023-07-20T11:07:59;2.53;;;2.15;;
70301;SDS011;57706;56.326;43.882;2023-07-20T11:10:25;7.05;;;2.10;;
70301;SDS011;57706;56.326;43.882;2023-07-20T11:16:24;2.28;;;1.70;;
70301;SDS011;57706;56.326;43.882;2023-07-20T11:18:32;2.20;;;1.98;;
70301;SDS011;57706;56.326;43.882;2023-07-20T11:20:59;4.18;;;1.70;;
70301;SDS011;57706;56.326;43.882;2023-07-20T11:23:25;10.95;;;2.15;;
70301;SDS011;57706;56.326;43.882;2023-07-20T11:25:51;3.97;;;2.20;;
70301;SDS011;57706;56.326;43.882;2023-07-20T11:28:17;4.13;;;1.75;;
70301;SDS011;57706;56.326;43.882;2023-07-20T11:30:43;9.15;;;2.10;;
70301;SDS011;57706;56.326;43.882;2023-07-20T11:33:09;7.47;;;2.00;;
70301;SDS011;57706;56.326;43.882;2023-07-20T11:35:36;5.85;;;1.67;;
70301;SDS011;57706;56.326;43.882;2023-07-20T11:38:07;7.40;;;2.10;;
70301;SDS011;57706;56.326;43.882;2023-07-20T11:40:33;5.72;;;1.70;;
70301;SDS011;57706;56.326;43.882;2023-07-20T11:42:59;4.28;;;1.70;;
70301;SDS011;57706;56.326;43.882;2023-07-20T11:45:25;5.25;;;2.35;;
70301;SDS011;57706;56.326;43.882;2023-07-20T11:47:53;3.78;;;2.35;;
70301;SDS011;57706;56.326;43.882;2023-07-20T11:50:18;4.00;;;2.10;;
70301;SDS011;57706;56.326;43.882;2023-07-20T11:52:44;10.05;;;2.70;;
70301;SDS011;57706;56.326;43.882;2023-07-20T11:55:10;5.90;;;2.55;;
70301;SDS011;57706;56.326;43.882;2023-07-20T11:57:37;6.75;;;2.60;;
70301;SDS011;57706;56.326;43.882;2023-07-20T12:00:04;5.05;;;2.90;;
70301;SDS011;57706;56.326;43.882;2023-07-20T12:02:37;4.63;;;3.10;;
70301;SDS011;57706;56.326;43.882;2023-07-20T12:05:06;4.55;;;2.80;;
70301;SDS011;57706;56.326;43.882;2023-07-20T12:07:36;4.85;;;2.72;;
70301;SDS011;57706;56.326;43.882;2023-07-20T12:10:08;6.63;;;2.75;;
70301;SDS011;57706;56.326;43.882;2023-07-20T12:12:43;4.05;;;2.10;;
70301;SDS011;57706;56.326;43.882;2023-07-20T12:17:43;3.58;;;2.00;;
70301;SDS011;57706;56.326;43.882;2023-07-20T12:20:09;4.60;;;2.72;;
70301;SDS011;57706;56.326;43.882;2023-07-20T12:22:43;3.38;;;1.70;;
70301;SDS011;57706;56.326;43.882;2023-07-20T12:25:09;9.93;;;2.40;;
70301;SDS011;57706;56.326;43.882;2023-07-20T12:27:36;2.78;;;1.88;;
70301;SDS011;57706;56.326;43.882;2023-07-20T12:30:04;1.50;;;1.40;;
70301;SDS011;57706;56.326;43.882;2023-07-20T12:32:31;2.55;;;1.80;;
70301;SDS011;57706;56.326;43.882;2023-07-20T12:34:58;4.60;;;1.70;;
70301;SDS011;57706;56.326;43.882;2023-07-20T12:37:26;2.00;;;1.70;;
70301;SDS011;57706;56.326;43.882;2023-07-20T12:39:52;3.58;;;1.95;;
70301;SDS011;57706;56.326;43.882;2023-07-20T12:42:18;1.70;;;1.60;;
70301;SDS011;57706;56.326;43.882;2023-07-20T12:44:44;1.85;;;1.67;;
70301;SDS011;57706;56.326;43.882;2023-07-20T12:47:10;3.58;;;1.98;;
70301;SDS011;57706;56.326;43.882;2023-07-20T12:49:36;5.15;;;1.88;;
70301;SDS011;57706;56.326;43.882;2023-07-20T12:52:01;2.88;;;1.83;;
70301;SDS011;57706;56.326;43.882;2023-07-20T12:54:27;3.53;;;1.85;;
70301;SDS011;57706;56.326;43.882;2023-07-20T12:56:53;3.17;;;1.80;;
70301;SDS011;57706;56.326;43.882;2023-07-20T12:59:19;3.58;;;1.50;;
70301;SDS011;57706;56.326;43.882;2023-07-20T13:01:45;2.80;;;1.73;;
70301;SDS011;57706;56.326;43.882;2023-07-20T13:04:11;4.47;;;1.67;;
70301;SDS011;57706;56.326;43.882;2023-07-20T13:06:36;3.00;;;1.77;;
70301;SDS011;57706;56.326;43.882;2023-07-20T13:09:02;2.67;;;1.92;;
70301;SDS011;57706;56.326;43.882;2023-07-20T13:11:28;3.25;;;2.10;;
70301;SDS011;57706;56.326;43.882;2023-07-20T13:13:54;2.95;;;2.05;;
70301;SDS011;57706;56.326;43.882;2023-07-20T13:16:20;4.88;;;2.15;;
70301;SDS011;57706;56.326;43.882;2023-07-20T13:18:46;4.53;;;1.95;;
70301;SDS011;57706;56.326;43.882;2023-07-20T13:21:12;9.02;;;2.00;;
70301;SDS011;57706;56.326;43.882;2023-07-20T13:23:38;2.90;;;2.00;;
70301;SDS011;57706;56.326;43.882;2023-07-20T13:26:04;3.85;;;1.90;;
70301;SDS011;57706;56.326;43.882;2023-07-20T13:28:31;5.28;;;2.25;;
70301;SDS011;57706;56.326;43.882;2023-07-20T13:30:56;5.07;;;2.22;;
70301;SDS011;57706;56.326;43.882;2023-07-20T13:33:22;2.28;;;1.58;;
70301;SDS011;57706;56.326;43.882;2023-07-20T13:35:48;4.20;;;2.03;;
70301;SDS011;57706;56.326;43.882;2023-07-20T13:38:14;2.67;;;2.33;;
70301;SDS011;57706;56.326;43.882;2023-07-20T13:40:39;3.80;;;2.10;;
70301;SDS011;57706;56.326;43.882;2023-07-20T13:43:08;6.40;;;2.50;;
70301;SDS011;57706;56.326;43.882;2023-07-20T13:45:33;11.98;;;2.58;;
70301;SDS011;57706;56.326;43.882;2023-07-20T13:47:59;2.30;;;2.10;;
70301;SDS011;57706;56.326;43.882;2023-07-20T13:50:25;3.47;;;1.73;;
70301;SDS011;57706;56.326;43.882;2023-07-20T13:52:51;6.97;;;2.50;;
70301;SDS011;57706;56.326;43.882;2023-07-20T13:55:17;6.80;;;2.42;;
70301;SDS011;57706;56.326;43.882;2023-07-20T13:57:43;7.15;;;3.47;;
70301;SDS011;57706;56.326;43.882;2023-07-20T14:00:09;5.72;;;2.85;;
70301;SDS011;57706;56.326;43.882;2023-07-20T14:02:40;7.88;;;2.80;;
70301;SDS011;57706;56.326;43.882;2023-07-20T14:05:06;4.72;;;2.63;;
70301;SDS011;57706;56.326;43.882;2023-07-20T14:07:33;6.68;;;2.90;;
70301;SDS011;57706;56.326;43.882;2023-07-20T14:09:59;6.03;;;3.15;;
70301;SDS011;57706;56.326;43.882;2023-07-20T14:12:25;4.63;;;2.95;;
70301;SDS011;57706;56.326;43.882;2023-07-20T14:14:51;7.00;;;3.40;;
70301;SDS011;57706;56.326;43.882;2023-07-20T14:17:16;8.77;;;3.58;;
70301;SDS011;57706;56.326;43.882;2023-07-20T14:19:43;9.50;;;3.53;;
70301;SDS011;57706;56.326;43.882;2023-07-20T14:22:09;11.55;;;2.95;;
70301;SDS011;57706;56.326;43.882;2023-07-20T14:24:35;11.35;;;2.85;;
70301;SDS011;57706;56.326;43.882;2023-07-20T14:27:00;5.32;;;2.80;;
70301;SDS011;57706;56.326;43.882;2023-07-20T14:29:26;3.85;;;2.42;;
70301;SDS011;57706;56.326;43.882;2023-07-20T14:31:52;7.05;;;2.85;;
70301;SDS011;57706;56.326;43.882;2023-07-20T14:34:19;7.97;;;2.90;;
70301;SDS011;57706;56.326;43.882;2023-07-20T14:36:45;8.50;;;2.92;;
70301;SDS011;57706;56.326;43.882;2023-07-20T14:39:11;5.90;;;2.90;;
70301;SDS011;57706;56.326;43.882;2023-07-20T14:41:37;9.20;;;2.20;;
70301;SDS011;57706;56.326;43.882;2023-07-20T14:44:03;6.22;;;1.80;;
70301;SDS011;57706;56.326;43.882;2023-07-20T14:46:29;2.28;;;1.58;;
70301;SDS011;57706;56.326;43.882;2023-07-20T14:48:55;6.93;;;1.50;;
70301;SDS011;57706;56.326;43.882;2023-07-20T14:51:21;2.83;;;1.65;;
70301;SDS011;57706;56.326;43.882;2023-07-20T14:53:47;3.50;;;1.15;;
70301;SDS011;57706;56.326;43.882;2023-07-20T14:56:13;3.97;;;1.60;;
70301;SDS011;57706;56.326;43.882;2023-07-20T14:58:38;3.40;;;1.27;;
70301;SDS011;57706;56.326;43.882;2023-07-20T15:01:04;5.05;;;1.40;;